sensor_id;sensor_type;location;lat;lon;timestamp;temperature;humidity
28548;DHT22;68292;49.600;8.746;2023-07-31T00:01:12;24.70;50.20
28548;DHT22;68292;49.600;8.746;2023-07-31T00:03:42;24.70;50.00
28548;DHT22;68292;49.600;8.746;2023-07-31T00:06:10;24.70;50.00
28548;DHT22;68292;49.600;8.746;2023-07-31T00:08:38;24.70;50.10
28548;DHT22;68292;49.600;8.746;2023-07-31T00:11:06;24.60;50.00
28548;DHT22;68292;49.600;8.746;2023-07-31T00:13:34;24.60;49.80
28548;DHT22;68292;49.600;8.746;2023-07-31T00:16:03;24.60;49.90
28548;DHT22;68292;49.600;8.746;2023-07-31T00:18:31;24.70;49.90
28548;DHT22;68292;49.600;8.746;2023-07-31T00:21:01;24.70;49.70
28548;DHT22;68292;49.600;8.746;2023-07-31T00:23:29;24.70;49.70
28548;DHT22;68292;49.600;8.746;2023-07-31T00:25:57;24.70;49.70
28548;DHT22;68292;49.600;8.746;2023-07-31T00:28:25;24.70;49.60
28548;DHT22;68292;49.600;8.746;2023-07-31T00:30:54;24.60;49.50
28548;DHT22;68292;49.600;8.746;2023-07-31T00:33:25;24.70;49.50
28548;DHT22;68292;49.600;8.746;2023-07-31T00:35:53;24.70;49.50
28548;DHT22;68292;49.600;8.746;2023-07-31T00:38:22;24.70;49.50
28548;DHT22;68292;49.600;8.746;2023-07-31T00:40:51;24.60;49.40
28548;DHT22;68292;49.600;8.746;2023-07-31T00:43:19;24.60;49.40
28548;DHT22;68292;49.600;8.746;2023-07-31T00:45:47;24.70;49.40
28548;DHT22;68292;49.600;8.746;2023-07-31T00:48:15;24.60;49.30
28548;DHT22;68292;49.600;8.746;2023-07-31T00:50:43;24.60;49.30
28548;DHT22;68292;49.600;8.746;2023-07-31T00:53:11;24.60;49.40
28548;DHT22;68292;49.600;8.746;2023-07-31T00:55:42;24.60;49.40
28548;DHT22;68292;49.600;8.746;2023-07-31T00:58:11;24.60;49.30
28548;DHT22;68292;49.600;8.746;2023-07-31T01:00:39;24.60;49.20
28548;DHT22;68292;49.600;8.746;2023-07-31T01:03:08;24.60;49.40
28548;DHT22;68292;49.600;8.746;2023-07-31T01:05:46;24.60;49.40
28548;DHT22;68292;49.600;8.746;2023-07-31T01:08:24;24.60;49.10
28548;DHT22;68292;49.600;8.746;2023-07-31T01:11:02;24.60;49.20
28548;DHT22;68292;49.600;8.746;2023-07-31T01:13:35;24.60;49.20
28548;DHT22;68292;49.600;8.746;2023-07-31T01:16:04;24.70;49.40
28548;DHT22;68292;49.600;8.746;2023-07-31T01:18:32;24.70;49.30
28548;DHT22;68292;49.600;8.746;2023-07-31T01:21:11;24.60;49.20
28548;DHT22;68292;49.600;8.746;2023-07-31T01:24:17;24.70;49.10
28548;DHT22;68292;49.600;8.746;2023-07-31T01:26:55;24.70;49.10
28548;DHT22;68292;49.600;8.746;2023-07-31T01:29:32;24.70;49.20
28548;DHT22;68292;49.600;8.746;2023-07-31T01:32:03;24.60;49.00
28548;DHT22;68292;49.600;8.746;2023-07-31T01:34:33;24.70;49.30
28548;DHT22;68292;49.600;8.746;2023-07-31T01:37:03;24.70;49.20
28548;DHT22;68292;49.600;8.746;2023-07-31T01:39:31;24.60;49.30
28548;DHT22;68292;49.600;8.746;2023-07-31T01:42:00;24.60;49.20
28548;DHT22;68292;49.600;8.746;2023-07-31T01:44:29;24.60;49.10
28548;DHT22;68292;49.600;8.746;2023-07-31T01:46:57;24.60;49.20
28548;DHT22;68292;49.600;8.746;2023-07-31T01:49:26;24.60;49.90
28548;DHT22;68292;49.600;8.746;2023-07-31T01:51:55;24.60;49.10
28548;DHT22;68292;49.600;8.746;2023-07-31T01:54:23;24.60;49.20
28548;DHT22;68292;49.600;8.746;2023-07-31T01:56:51;24.60;49.20
28548;DHT22;68292;49.600;8.746;2023-07-31T01:59:20;24.60;49.20
28548;DHT22;68292;49.600;8.746;2023-07-31T02:01:48;24.60;49.20
28548;DHT22;68292;49.600;8.746;2023-07-31T02:04:20;24.60;49.20
28548;DHT22;68292;49.600;8.746;2023-07-31T02:06:48;24.60;49.20
28548;DHT22;68292;49.600;8.746;2023-07-31T02:09:16;24.60;49.20
28548;DHT22;68292;49.600;8.746;2023-07-31T02:11:44;24.60;49.10
28548;DHT22;68292;49.600;8.746;2023-07-31T02:14:12;24.60;49.10
28548;DHT22;68292;49.600;8.746;2023-07-31T02:16:42;24.60;49.10
28548;DHT22;68292;49.600;8.746;2023-07-31T02:19:10;24.60;49.00
28548;DHT22;68292;49.600;8.746;2023-07-31T02:21:38;24.60;49.10
28548;DHT22;68292;49.600;8.746;2023-07-31T02:24:06;24.60;49.20
28548;DHT22;68292;49.600;8.746;2023-07-31T02:26:34;24.60;49.00
28548;DHT22;68292;49.600;8.746;2023-07-31T02:29:03;24.60;49.10
28548;DHT22;68292;49.600;8.746;2023-07-31T02:31:31;24.60;49.10
28548;DHT22;68292;49.600;8.746;2023-07-31T02:34:01;24.60;49.10
28548;DHT22;68292;49.600;8.746;2023-07-31T02:36:29;24.60;49.10
28548;DHT22;68292;49.600;8.746;2023-07-31T02:38:57;24.60;49.10
28548;DHT22;68292;49.600;8.746;2023-07-31T02:41:25;24.60;49.10
28548;DHT22;68292;49.600;8.746;2023-07-31T02:43:54;24.60;49.10
28548;DHT22;68292;49.600;8.746;2023-07-31T02:46:22;24.60;49.10
28548;DHT22;68292;49.600;8.746;2023-07-31T02:48:51;24.60;49.20
28548;DHT22;68292;49.600;8.746;2023-07-31T02:51:20;24.60;49.20
28548;DHT22;68292;49.600;8.746;2023-07-31T02:53:49;24.60;49.20
28548;DHT22;68292;49.600;8.746;2023-07-31T02:56:17;24.60;49.20
28548;DHT22;68292;49.600;8.746;2023-07-31T02:58:45;24.60;49.20
28548;DHT22;68292;49.600;8.746;2023-07-31T03:01:13;24.50;49.10
28548;DHT22;68292;49.600;8.746;2023-07-31T03:03:43;24.50;49.20
28548;DHT22;68292;49.600;8.746;2023-07-31T03:06:12;24.50;49.20
28548;DHT22;68292;49.600;8.746;2023-07-31T03:08:41;24.60;49.30
28548;DHT22;68292;49.600;8.746;2023-07-31T03:11:09;24.50;49.30
28548;DHT22;68292;49.600;8.746;2023-07-31T03:13:37;24.50;49.30
28548;DHT22;68292;49.600;8.746;2023-07-31T03:16:05;24.50;49.20
28548;DHT22;68292;49.600;8.746;2023-07-31T03:18:33;24.50;49.30
28548;DHT22;68292;49.600;8.746;2023-07-31T03:21:02;24.50;49.30
28548;DHT22;68292;49.600;8.746;2023-07-31T03:23:30;24.50;49.40
28548;DHT22;68292;49.600;8.746;2023-07-31T03:26:00;24.50;49.20
28548;DHT22;68292;49.600;8.746;2023-07-31T03:28:30;24.50;49.20
28548;DHT22;68292;49.600;8.746;2023-07-31T03:30:58;24.50;49.20
28548;DHT22;68292;49.600;8.746;2023-07-31T03:33:27;24.50;49.20
28548;DHT22;68292;49.600;8.746;2023-07-31T03:35:56;24.50;49.20
28548;DHT22;68292;49.600;8.746;2023-07-31T03:38:24;24.50;49.20
28548;DHT22;68292;49.600;8.746;2023-07-31T03:40:53;24.50;49.10
28548;DHT22;68292;49.600;8.746;2023-07-31T03:43:22;24.50;49.20
28548;DHT22;68292;49.600;8.746;2023-07-31T03:45:52;24.50;49.20
28548;DHT22;68292;49.600;8.746;2023-07-31T03:48:20;24.50;49.20
28548;DHT22;68292;49.600;8.746;2023-07-31T03:50:49;24.40;49.30
28548;DHT22;68292;49.600;8.746;2023-07-31T03:53:17;24.40;49.20
28548;DHT22;68292;49.600;8.746;2023-07-31T03:55:45;24.40;49.30
28548;DHT22;68292;49.600;8.746;2023-07-31T03:58:13;24.40;49.20
28548;DHT22;68292;49.600;8.746;2023-07-31T04:00:42;24.40;49.20
28548;DHT22;68292;49.600;8.746;2023-07-31T04:03:10;24.40;49.10
28548;DHT22;68292;49.600;8.746;2023-07-31T04:05:39;24.40;49.30
28548;DHT22;68292;49.600;8.746;2023-07-31T04:08:07;24.40;49.20
28548;DHT22;68292;49.600;8.746;2023-07-31T04:10:35;24.40;49.20
28548;DHT22;68292;49.600;8.746;2023-07-31T04:13:03;24.40;49.10
28548;DHT22;68292;49.600;8.746;2023-07-31T04:15:31;24.40;49.10
28548;DHT22;68292;49.600;8.746;2023-07-31T04:18:01;24.40;49.10
28548;DHT22;68292;49.600;8.746;2023-07-31T04:20:29;24.40;49.20
28548;DHT22;68292;49.600;8.746;2023-07-31T04:22:57;24.40;49.20
28548;DHT22;68292;49.600;8.746;2023-07-31T04:25:25;24.40;49.20
28548;DHT22;68292;49.600;8.746;2023-07-31T04:27:53;24.40;49.20
28548;DHT22;68292;49.600;8.746;2023-07-31T04:30:21;24.40;49.20
28548;DHT22;68292;49.600;8.746;2023-07-31T04:32:50;24.40;49.30
28548;DHT22;68292;49.600;8.746;2023-07-31T04:35:19;24.40;49.20
28548;DHT22;68292;49.600;8.746;2023-07-31T04:37:47;24.40;49.20
28548;DHT22;68292;49.600;8.746;2023-07-31T04:40:16;24.40;49.20
28548;DHT22;68292;49.600;8.746;2023-07-31T04:42:44;24.40;49.30
28548;DHT22;68292;49.600;8.746;2023-07-31T04:45:13;24.40;49.20
28548;DHT22;68292;49.600;8.746;2023-07-31T04:47:42;24.40;49.20
28548;DHT22;68292;49.600;8.746;2023-07-31T04:50:10;24.40;49.20
28548;DHT22;68292;49.600;8.746;2023-07-31T04:52:39;24.40;49.10
28548;DHT22;68292;49.600;8.746;2023-07-31T04:55:08;24.40;49.20
28548;DHT22;68292;49.600;8.746;2023-07-31T04:57:36;24.40;49.20
28548;DHT22;68292;49.600;8.746;2023-07-31T05:00:06;24.40;49.30
28548;DHT22;68292;49.600;8.746;2023-07-31T05:02:34;24.40;49.30
28548;DHT22;68292;49.600;8.746;2023-07-31T05:05:03;24.40;49.30
28548;DHT22;68292;49.600;8.746;2023-07-31T05:07:31;24.30;49.30
28548;DHT22;68292;49.600;8.746;2023-07-31T05:10:01;24.40;49.30
28548;DHT22;68292;49.600;8.746;2023-07-31T05:12:29;24.40;49.20
28548;DHT22;68292;49.600;8.746;2023-07-31T05:14:57;24.40;49.20
28548;DHT22;68292;49.600;8.746;2023-07-31T05:17:25;24.40;49.50
28548;DHT22;68292;49.600;8.746;2023-07-31T05:19:53;24.30;49.40
28548;DHT22;68292;49.600;8.746;2023-07-31T05:22:21;24.40;49.30
28548;DHT22;68292;49.600;8.746;2023-07-31T05:24:49;24.40;49.50
28548;DHT22;68292;49.600;8.746;2023-07-31T05:27:19;24.40;49.50
28548;DHT22;68292;49.600;8.746;2023-07-31T05:29:47;24.30;49.30
28548;DHT22;68292;49.600;8.746;2023-07-31T05:32:15;24.40;49.40
28548;DHT22;68292;49.600;8.746;2023-07-31T05:34:43;24.30;49.40
28548;DHT22;68292;49.600;8.746;2023-07-31T05:37:11;24.30;49.30
28548;DHT22;68292;49.600;8.746;2023-07-31T05:39:39;24.30;49.40
28548;DHT22;68292;49.600;8.746;2023-07-31T05:42:07;24.30;49.50
28548;DHT22;68292;49.600;8.746;2023-07-31T05:44:37;24.30;49.50
28548;DHT22;68292;49.600;8.746;2023-07-31T05:47:05;24.40;49.50
28548;DHT22;68292;49.600;8.746;2023-07-31T05:49:34;24.40;49.60
28548;DHT22;68292;49.600;8.746;2023-07-31T05:52:02;24.30;50.30
28548;DHT22;68292;49.600;8.746;2023-07-31T05:54:32;24.30;49.60
28548;DHT22;68292;49.600;8.746;2023-07-31T05:57:00;24.30;49.60
28548;DHT22;68292;49.600;8.746;2023-07-31T05:59:28;24.30;49.50
28548;DHT22;68292;49.600;8.746;2023-07-31T06:02:01;24.40;49.80
28548;DHT22;68292;49.600;8.746;2023-07-31T06:04:29;24.30;49.70
28548;DHT22;68292;49.600;8.746;2023-07-31T06:06:57;24.30;49.60
28548;DHT22;68292;49.600;8.746;2023-07-31T06:09:25;24.40;49.70
28548;DHT22;68292;49.600;8.746;2023-07-31T06:11:53;24.40;49.60
28548;DHT22;68292;49.600;8.746;2023-07-31T06:14:21;24.30;49.60
28548;DHT22;68292;49.600;8.746;2023-07-31T06:16:49;24.40;49.60
28548;DHT22;68292;49.600;8.746;2023-07-31T06:19:19;24.30;49.50
28548;DHT22;68292;49.600;8.746;2023-07-31T06:21:47;24.30;49.60
28548;DHT22;68292;49.600;8.746;2023-07-31T06:24:15;24.30;49.80
28548;DHT22;68292;49.600;8.746;2023-07-31T06:26:46;24.30;49.70
28548;DHT22;68292;49.600;8.746;2023-07-31T06:29:14;24.30;49.70
28548;DHT22;68292;49.600;8.746;2023-07-31T06:31:43;24.30;49.80
28548;DHT22;68292;49.600;8.746;2023-07-31T06:34:11;24.30;50.50
28548;DHT22;68292;49.600;8.746;2023-07-31T06:36:40;24.30;49.80
28548;DHT22;68292;49.600;8.746;2023-07-31T06:39:08;24.30;49.90
28548;DHT22;68292;49.600;8.746;2023-07-31T06:41:37;24.40;50.00
28548;DHT22;68292;49.600;8.746;2023-07-31T06:44:09;24.30;50.00
28548;DHT22;68292;49.600;8.746;2023-07-31T06:46:37;24.40;50.00
28548;DHT22;68292;49.600;8.746;2023-07-31T06:49:06;24.40;50.00
28548;DHT22;68292;49.600;8.746;2023-07-31T06:51:35;24.40;50.00
28548;DHT22;68292;49.600;8.746;2023-07-31T06:54:08;24.30;50.00
28548;DHT22;68292;49.600;8.746;2023-07-31T06:56:36;24.40;50.30
28548;DHT22;68292;49.600;8.746;2023-07-31T06:59:07;24.40;50.40
28548;DHT22;68292;49.600;8.746;2023-07-31T07:01:35;24.40;50.40
28548;DHT22;68292;49.600;8.746;2023-07-31T07:04:03;24.40;50.60
28548;DHT22;68292;49.600;8.746;2023-07-31T07:06:31;24.40;50.70
28548;DHT22;68292;49.600;8.746;2023-07-31T07:08:59;24.40;50.70
28548;DHT22;68292;49.600;8.746;2023-07-31T07:11:29;24.40;50.70
28548;DHT22;68292;49.600;8.746;2023-07-31T07:13:57;24.40;50.90
28548;DHT22;68292;49.600;8.746;2023-07-31T07:16:25;24.40;50.90
28548;DHT22;68292;49.600;8.746;2023-07-31T07:18:53;24.40;50.90
28548;DHT22;68292;49.600;8.746;2023-07-31T07:21:30;24.50;50.90
28548;DHT22;68292;49.600;8.746;2023-07-31T07:23:58;24.40;50.90
28548;DHT22;68292;49.600;8.746;2023-07-31T07:26:26;24.50;50.90
28548;DHT22;68292;49.600;8.746;2023-07-31T07:28:55;24.50;51.00
28548;DHT22;68292;49.600;8.746;2023-07-31T07:31:26;24.50;50.90
28548;DHT22;68292;49.600;8.746;2023-07-31T07:33:54;24.50;50.90
28548;DHT22;68292;49.600;8.746;2023-07-31T07:36:23;24.50;50.90
28548;DHT22;68292;49.600;8.746;2023-07-31T07:38:51;24.50;50.90
28548;DHT22;68292;49.600;8.746;2023-07-31T07:41:20;24.50;50.90
28548;DHT22;68292;49.600;8.746;2023-07-31T07:43:48;24.50;50.90
28548;DHT22;68292;49.600;8.746;2023-07-31T07:46:17;24.50;51.00
28548;DHT22;68292;49.600;8.746;2023-07-31T07:48:45;24.50;51.00
28548;DHT22;68292;49.600;8.746;2023-07-31T07:51:13;24.50;50.90
28548;DHT22;68292;49.600;8.746;2023-07-31T07:53:41;24.60;50.90
28548;DHT22;68292;49.600;8.746;2023-07-31T07:56:09;24.50;51.00
28548;DHT22;68292;49.600;8.746;2023-07-31T07:58:37;24.60;50.90
28548;DHT22;68292;49.600;8.746;2023-07-31T08:01:05;24.50;51.00
28548;DHT22;68292;49.600;8.746;2023-07-31T08:03:35;24.60;51.20
28548;DHT22;68292;49.600;8.746;2023-07-31T08:06:03;24.60;51.10
28548;DHT22;68292;49.600;8.746;2023-07-31T08:08:31;24.60;51.20
28548;DHT22;68292;49.600;8.746;2023-07-31T08:10:59;24.60;51.20
28548;DHT22;68292;49.600;8.746;2023-07-31T08:13:27;24.60;51.20
28548;DHT22;68292;49.600;8.746;2023-07-31T08:15:55;24.60;51.10
28548;DHT22;68292;49.600;8.746;2023-07-31T08:18:24;24.60;51.90
28548;DHT22;68292;49.600;8.746;2023-07-31T08:20:53;24.60;51.20
28548;DHT22;68292;49.600;8.746;2023-07-31T08:23:21;24.60;51.40
28548;DHT22;68292;49.600;8.746;2023-07-31T08:25:49;24.60;51.50
28548;DHT22;68292;49.600;8.746;2023-07-31T08:28:17;24.70;51.60
28548;DHT22;68292;49.600;8.746;2023-07-31T08:30:46;24.70;51.60
28548;DHT22;68292;49.600;8.746;2023-07-31T08:33:14;24.70;51.80
28548;DHT22;68292;49.600;8.746;2023-07-31T08:35:42;24.70;52.00
28548;DHT22;68292;49.600;8.746;2023-07-31T08:38:12;24.70;51.90
28548;DHT22;68292;49.600;8.746;2023-07-31T08:40:40;24.70;52.20
28548;DHT22;68292;49.600;8.746;2023-07-31T08:43:09;24.70;52.20
28548;DHT22;68292;49.600;8.746;2023-07-31T08:45:37;24.80;52.20
28548;DHT22;68292;49.600;8.746;2023-07-31T08:48:06;24.80;52.20
28548;DHT22;68292;49.600;8.746;2023-07-31T08:50:34;24.80;52.30
28548;DHT22;68292;49.600;8.746;2023-07-31T08:53:03;24.90;52.20
28548;DHT22;68292;49.600;8.746;2023-07-31T08:55:32;24.90;52.30
28548;DHT22;68292;49.600;8.746;2023-07-31T08:58:03;24.90;52.10
28548;DHT22;68292;49.600;8.746;2023-07-31T09:00:32;25.00;52.10
28548;DHT22;68292;49.600;8.746;2023-07-31T09:03:06;25.00;51.90
28548;DHT22;68292;49.600;8.746;2023-07-31T09:05:38;25.00;51.90
28548;DHT22;68292;49.600;8.746;2023-07-31T09:08:08;25.10;52.00
28548;DHT22;68292;49.600;8.746;2023-07-31T09:10:41;25.10;51.80
28548;DHT22;68292;49.600;8.746;2023-07-31T09:13:10;25.10;51.80
28548;DHT22;68292;49.600;8.746;2023-07-31T09:15:39;25.10;51.70
28548;DHT22;68292;49.600;8.746;2023-07-31T09:18:08;25.20;51.50
28548;DHT22;68292;49.600;8.746;2023-07-31T09:20:37;25.20;51.60
28548;DHT22;68292;49.600;8.746;2023-07-31T09:23:07;25.20;51.50
28548;DHT22;68292;49.600;8.746;2023-07-31T09:25:36;25.20;51.50
28548;DHT22;68292;49.600;8.746;2023-07-31T09:28:08;25.20;51.40
28548;DHT22;68292;49.600;8.746;2023-07-31T09:30:45;25.20;51.60
28548;DHT22;68292;49.600;8.746;2023-07-31T09:33:15;25.20;51.40
28548;DHT22;68292;49.600;8.746;2023-07-31T09:35:43;25.30;51.60
28548;DHT22;68292;49.600;8.746;2023-07-31T09:38:13;25.30;51.50
28548;DHT22;68292;49.600;8.746;2023-07-31T09:40:44;25.30;51.40
28548;DHT22;68292;49.600;8.746;2023-07-31T09:43:18;25.30;51.50
28548;DHT22;68292;49.600;8.746;2023-07-31T09:45:48;25.30;51.60
28548;DHT22;68292;49.600;8.746;2023-07-31T09:48:17;25.30;51.60
28548;DHT22;68292;49.600;8.746;2023-07-31T09:50:47;25.30;51.40
28548;DHT22;68292;49.600;8.746;2023-07-31T09:53:16;25.30;51.60
28548;DHT22;68292;49.600;8.746;2023-07-31T09:55:45;25.40;51.50
28548;DHT22;68292;49.600;8.746;2023-07-31T09:58:14;25.40;51.60
28548;DHT22;68292;49.600;8.746;2023-07-31T10:00:42;25.40;51.60
28548;DHT22;68292;49.600;8.746;2023-07-31T10:03:11;25.40;51.60
28548;DHT22;68292;49.600;8.746;2023-07-31T10:05:42;25.40;51.70
28548;DHT22;68292;49.600;8.746;2023-07-31T10:08:15;25.40;51.40
28548;DHT22;68292;49.600;8.746;2023-07-31T10:10:45;25.40;51.40
28548;DHT22;68292;49.600;8.746;2023-07-31T10:13:15;25.40;51.40
28548;DHT22;68292;49.600;8.746;2023-07-31T10:15:44;25.50;51.30
28548;DHT22;68292;49.600;8.746;2023-07-31T10:18:13;25.50;51.20
28548;DHT22;68292;49.600;8.746;2023-07-31T10:20:42;25.50;51.20
28548;DHT22;68292;49.600;8.746;2023-07-31T10:23:11;25.50;51.30
28548;DHT22;68292;49.600;8.746;2023-07-31T10:25:40;25.50;51.20
28548;DHT22;68292;49.600;8.746;2023-07-31T10:28:10;25.40;51.20
28548;DHT22;68292;49.600;8.746;2023-07-31T10:30:41;25.40;51.30
28548;DHT22;68292;49.600;8.746;2023-07-31T10:33:09;25.40;51.40
28548;DHT22;68292;49.600;8.746;2023-07-31T10:35:38;25.40;51.20
28548;DHT22;68292;49.600;8.746;2023-07-31T10:38:10;25.40;51.30
28548;DHT22;68292;49.600;8.746;2023-07-31T10:40:39;25.40;51.30
28548;DHT22;68292;49.600;8.746;2023-07-31T10:43:08;25.40;51.40
28548;DHT22;68292;49.600;8.746;2023-07-31T10:45:41;25.50;51.50
28548;DHT22;68292;49.600;8.746;2023-07-31T10:48:13;25.50;51.70
28548;DHT22;68292;49.600;8.746;2023-07-31T10:50:47;25.50;51.80
28548;DHT22;68292;49.600;8.746;2023-07-31T10:53:23;25.50;52.00
28548;DHT22;68292;49.600;8.746;2023-07-31T10:55:52;25.50;52.20
28548;DHT22;68292;49.600;8.746;2023-07-31T10:58:21;25.60;52.00
28548;DHT22;68292;49.600;8.746;2023-07-31T11:00:55;25.60;52.00
28548;DHT22;68292;49.600;8.746;2023-07-31T11:03:26;25.60;51.80
28548;DHT22;68292;49.600;8.746;2023-07-31T11:06:01;25.60;51.70
28548;DHT22;68292;49.600;8.746;2023-07-31T11:08:32;25.60;51.80
28548;DHT22;68292;49.600;8.746;2023-07-31T11:11:07;25.60;51.60
28548;DHT22;68292;49.600;8.746;2023-07-31T11:13:41;25.60;51.60
28548;DHT22;68292;49.600;8.746;2023-07-31T11:16:13;25.60;51.60
28548;DHT22;68292;49.600;8.746;2023-07-31T11:18:44;25.60;51.60
28548;DHT22;68292;49.600;8.746;2023-07-31T11:21:14;25.70;51.70
28548;DHT22;68292;49.600;8.746;2023-07-31T11:23:46;25.70;51.50
28548;DHT22;68292;49.600;8.746;2023-07-31T11:26:14;25.60;51.40
28548;DHT22;68292;49.600;8.746;2023-07-31T11:28:45;25.70;51.50
28548;DHT22;68292;49.600;8.746;2023-07-31T11:31:16;25.70;51.70
28548;DHT22;68292;49.600;8.746;2023-07-31T11:33:45;25.70;51.50
28548;DHT22;68292;49.600;8.746;2023-07-31T11:36:17;25.70;51.50
28548;DHT22;68292;49.600;8.746;2023-07-31T11:38:47;25.70;51.40
28548;DHT22;68292;49.600;8.746;2023-07-31T11:41:16;25.70;51.50
28548;DHT22;68292;49.600;8.746;2023-07-31T11:43:46;25.70;51.70
28548;DHT22;68292;49.600;8.746;2023-07-31T11:46:17;25.70;51.70
28548;DHT22;68292;49.600;8.746;2023-07-31T11:48:48;25.70;51.60
28548;DHT22;68292;49.600;8.746;2023-07-31T11:51:20;25.70;51.50
28548;DHT22;68292;49.600;8.746;2023-07-31T11:53:52;25.80;51.70
28548;DHT22;68292;49.600;8.746;2023-07-31T11:56:21;25.80;51.60
28548;DHT22;68292;49.600;8.746;2023-07-31T11:58:52;25.80;51.60
28548;DHT22;68292;49.600;8.746;2023-07-31T12:01:23;25.80;51.50
28548;DHT22;68292;49.600;8.746;2023-07-31T12:03:52;25.80;51.60
28548;DHT22;68292;49.600;8.746;2023-07-31T12:06:20;25.80;51.60
28548;DHT22;68292;49.600;8.746;2023-07-31T12:08:48;25.80;51.50
28548;DHT22;68292;49.600;8.746;2023-07-31T12:11:17;25.80;51.30
28548;DHT22;68292;49.600;8.746;2023-07-31T12:13:45;25.80;51.30
28548;DHT22;68292;49.600;8.746;2023-07-31T12:16:13;25.80;51.30
28548;DHT22;68292;49.600;8.746;2023-07-31T12:18:42;25.70;51.20
28548;DHT22;68292;49.600;8.746;2023-07-31T12:21:11;25.70;51.10
28548;DHT22;68292;49.600;8.746;2023-07-31T12:23:40;25.70;51.20
28548;DHT22;68292;49.600;8.746;2023-07-31T12:26:10;25.70;51.90
28548;DHT22;68292;49.600;8.746;2023-07-31T12:28:41;25.70;51.30
28548;DHT22;68292;49.600;8.746;2023-07-31T12:31:11;25.70;51.40
28548;DHT22;68292;49.600;8.746;2023-07-31T12:33:42;25.70;51.40
28548;DHT22;68292;49.600;8.746;2023-07-31T12:36:13;25.70;51.30
28548;DHT22;68292;49.600;8.746;2023-07-31T12:38:42;25.70;51.50
28548;DHT22;68292;49.600;8.746;2023-07-31T12:41:11;25.70;51.50
28548;DHT22;68292;49.600;8.746;2023-07-31T12:43:40;25.70;51.70
28548;DHT22;68292;49.600;8.746;2023-07-31T12:46:09;25.70;51.80
28548;DHT22;68292;49.600;8.746;2023-07-31T12:48:38;25.70;51.80
28548;DHT22;68292;49.600;8.746;2023-07-31T12:51:08;25.70;51.70
28548;DHT22;68292;49.600;8.746;2023-07-31T12:53:37;25.70;51.80
28548;DHT22;68292;49.600;8.746;2023-07-31T12:56:05;25.70;51.60
28548;DHT22;68292;49.600;8.746;2023-07-31T12:58:33;25.80;51.60
28548;DHT22;68292;49.600;8.746;2023-07-31T13:01:02;25.80;51.50
28548;DHT22;68292;49.600;8.746;2023-07-31T13:03:30;25.80;51.80
28548;DHT22;68292;49.600;8.746;2023-07-31T13:05:58;25.80;51.90
28548;DHT22;68292;49.600;8.746;2023-07-31T13:08:28;25.80;51.60
28548;DHT22;68292;49.600;8.746;2023-07-31T13:10:56;25.80;51.70
28548;DHT22;68292;49.600;8.746;2023-07-31T13:13:24;25.80;51.40
28548;DHT22;68292;49.600;8.746;2023-07-31T13:15:52;25.80;51.20
28548;DHT22;68292;49.600;8.746;2023-07-31T13:18:20;25.80;51.10
28548;DHT22;68292;49.600;8.746;2023-07-31T13:20:48;25.80;51.10
28548;DHT22;68292;49.600;8.746;2023-07-31T13:23:16;25.80;51.10
28548;DHT22;68292;49.600;8.746;2023-07-31T13:25:46;25.80;51.20
28548;DHT22;68292;49.600;8.746;2023-07-31T13:28:14;25.80;51.10
28548;DHT22;68292;49.600;8.746;2023-07-31T13:30:42;25.80;51.30
28548;DHT22;68292;49.600;8.746;2023-07-31T13:33:10;25.90;51.40
28548;DHT22;68292;49.600;8.746;2023-07-31T13:35:51;25.80;51.30
28548;DHT22;68292;49.600;8.746;2023-07-31T13:38:19;25.80;51.30
28548;DHT22;68292;49.600;8.746;2023-07-31T13:40:48;25.90;51.20
28548;DHT22;68292;49.600;8.746;2023-07-31T13:43:16;25.90;51.20
28548;DHT22;68292;49.600;8.746;2023-07-31T13:45:44;25.90;51.20
28548;DHT22;68292;49.600;8.746;2023-07-31T13:48:12;25.90;51.10
28548;DHT22;68292;49.600;8.746;2023-07-31T13:50:40;25.80;50.90
28548;DHT22;68292;49.600;8.746;2023-07-31T13:53:08;25.90;51.00
28548;DHT22;68292;49.600;8.746;2023-07-31T13:55:37;25.90;51.10
28548;DHT22;68292;49.600;8.746;2023-07-31T13:58:06;25.90;51.00
28548;DHT22;68292;49.600;8.746;2023-07-31T14:00:34;25.90;50.90
28548;DHT22;68292;49.600;8.746;2023-07-31T14:03:03;25.80;50.80
28548;DHT22;68292;49.600;8.746;2023-07-31T14:05:31;25.80;50.80
28548;DHT22;68292;49.600;8.746;2023-07-31T14:07:59;25.80;50.90
28548;DHT22;68292;49.600;8.746;2023-07-31T14:10:27;25.80;51.00
28548;DHT22;68292;49.600;8.746;2023-07-31T14:12:55;25.80;51.00
28548;DHT22;68292;49.600;8.746;2023-07-31T14:15:24;25.80;51.10
28548;DHT22;68292;49.600;8.746;2023-07-31T14:17:52;25.80;51.10
28548;DHT22;68292;49.600;8.746;2023-07-31T14:20:22;25.80;51.10
28548;DHT22;68292;49.600;8.746;2023-07-31T14:22:50;25.80;51.00
28548;DHT22;68292;49.600;8.746;2023-07-31T14:25:18;25.80;51.00
28548;DHT22;68292;49.600;8.746;2023-07-31T14:27:47;25.80;51.10
28548;DHT22;68292;49.600;8.746;2023-07-31T14:30:15;25.80;51.50
28548;DHT22;68292;49.600;8.746;2023-07-31T14:32:45;25.80;51.30
28548;DHT22;68292;49.600;8.746;2023-07-31T14:35:13;25.80;51.30
28548;DHT22;68292;49.600;8.746;2023-07-31T14:37:42;25.80;51.30
28548;DHT22;68292;49.600;8.746;2023-07-31T14:40:12;25.80;51.30
28548;DHT22;68292;49.600;8.746;2023-07-31T14:42:41;25.80;51.30
28548;DHT22;68292;49.600;8.746;2023-07-31T14:45:10;25.80;51.40
28548;DHT22;68292;49.600;8.746;2023-07-31T14:47:38;25.80;51.50
28548;DHT22;68292;49.600;8.746;2023-07-31T14:50:08;25.80;51.40
28548;DHT22;68292;49.600;8.746;2023-07-31T14:52:37;25.80;51.50
28548;DHT22;68292;49.600;8.746;2023-07-31T14:55:06;25.80;51.60
28548;DHT22;68292;49.600;8.746;2023-07-31T14:57:35;25.80;51.50
28548;DHT22;68292;49.600;8.746;2023-07-31T15:00:04;25.80;51.70
28548;DHT22;68292;49.600;8.746;2023-07-31T15:02:35;25.80;51.60
28548;DHT22;68292;49.600;8.746;2023-07-31T15:05:04;25.80;51.60
28548;DHT22;68292;49.600;8.746;2023-07-31T15:07:34;25.80;51.80
28548;DHT22;68292;49.600;8.746;2023-07-31T15:10:04;25.80;51.80
28548;DHT22;68292;49.600;8.746;2023-07-31T15:12:33;25.80;51.80
28548;DHT22;68292;49.600;8.746;2023-07-31T15:15:01;25.80;51.90
28548;DHT22;68292;49.600;8.746;2023-07-31T15:17:29;25.80;51.90
28548;DHT22;68292;49.600;8.746;2023-07-31T15:19:57;25.80;52.00
28548;DHT22;68292;49.600;8.746;2023-07-31T15:22:28;25.80;52.00
28548;DHT22;68292;49.600;8.746;2023-07-31T15:24:59;25.80;52.00
28548;DHT22;68292;49.600;8.746;2023-07-31T15:27:29;25.80;52.30
28548;DHT22;68292;49.600;8.746;2023-07-31T15:29:57;25.80;52.00
28548;DHT22;68292;49.600;8.746;2023-07-31T15:32:25;25.80;51.90
28548;DHT22;68292;49.600;8.746;2023-07-31T15:34:53;25.80;51.90
28548;DHT22;68292;49.600;8.746;2023-07-31T15:37:22;25.80;52.00
28548;DHT22;68292;49.600;8.746;2023-07-31T15:39:54;25.80;51.90
28548;DHT22;68292;49.600;8.746;2023-07-31T15:42:24;25.80;52.80